Langley Air Force Base, VA

1:19 PM EST on February 01, 2015 (GMT -0500)
Nelson Farms | Change Station
CLOSE
Current Station
Personal Weather Station
Location: Hampton, VA
Elevation: 23 ft
Nearby Weather Stations

Elev 23 ft 37.07 °N, 76.42 °W | Updated 8 seconds ago

Overcast
Overcast
47.8 °F
Feels Like 48 °F
N
2.7
Wind Variable Wind from East
Gusts 7.3 mph

Today
High -- | Low -- °F
--% Chance of Precip.
Yesterday
High -- | Low -- °F
Precip. -- in
7:08 AM 5:30 PM
Waxing Gibbous, 96% visible
Pressure 30.25 in
Visibility 10.0 miles
Clouds Overcast 10000 ft
Windchill 48 °F
Dew Point 30 °F
Humidity 50%
Rainfall 0.00 in
Snow Depth Not available.
UV 1 out of 12
Pollen 2.10 out of 12
Air Quality Not available.
Flu Activity Not available.
METAR KLFI 011758Z AUTO 10008KT 10SM OVC100 07/M03 A3022 RMK AO2 SLP241 T00721033 10073 21038 57030 $

More Conditions Fewer Conditions

Pressure 30.25 in
Visibility 10.0 miles
Clouds Overcast 10000 ft
Windchill 48 °F
Dew Point 30 °F
Humidity 50%
Rainfall 0.00 in
Snow Depth Not available.
UV 1 out of 12
Pollen 2.10 out of 12
Air Quality Not available.
Flu Activity Not available.
METAR KLFI 011758Z AUTO 10008KT 10SM OVC100 07/M03 A3022 RMK AO2 SLP241 T00721033 10073 21038 57030 $

More Conditions Fewer Conditions

10-Day Weather Forecast

Almanac

Astronomy

Feb. 01, 2015 Rise Set
Actual Time
Civil Twilight
Nautical Twilight
Astronomical Twilight
Moon
Length of Visible Light
Length of Day
Tomorrow will be .
, % of the Moon is Illuminated

Today's Extremes

State Highs State Lows

Community

WunderPhotos

Upload Photos

1,792,420 photos uploaded!

WunderBlogs® & News

Nearby

Air Quality

  Air Quality AQ Index Pollutant
Not available.

Snow Depth

Station Depth Elevation

Earthquake Activity

City Distance Mag. Time & Date
Minimum magnitude displayed is 2.5.

Coastal Water Temperatures

Place Temperature

Nearby Weather Stations